Timmonsville, South Carolina
Current Conditions -  °F | °C
As of 10:53 AM on Friday 24 Oct 2014 (Local Time) from KFLO Reporting Station
Clear Clear  
Wind Chill: 60°   Ceiling: Unl
Heat Index: 60°   Visibility: 10mi
Dew Point: 44°   Wind: 5mph
Humidity: 55%   Direction: 30°NNE
Pressure: 30.08"   Gusts: NA
Location:  34.13°N, 79.94°W
Report Text: KFLO 241453Z 03004KT 10SM CLR 16/07 A3008 RMK AO2 SLP184 T01560067 51009
Loading
Personal Weather Stations






























Interactive Weather Map
Tropical Storm Tracking
New forecast layout! Learn more

10-Day Weather Forecast

Advertisements
Track Severe Weather on mobile